Terminal Aerodrome Forecast
Issued by NWS

Home | Current Version | Previous Version | Text Only | Print | Product List | Glossary On
Versions: 1 2 3 4 5 6 7 8 9 10 11 12 13 14 15 16 17 18 19 20 21 22 23 24
684
FTUS46 KSGX 131126
TAFSAN
TAF
KSAN 131126Z 1312/1418 VRB03KT 4SM BR VCFG FEW001
      TEMPO 1312/1315 1/4SM FG VV001
     FM131600 VRB04KT P6SM SCT250
     FM132200 29010KT P6SM SCT250
     FM140100 VRB04KT P6SM FEW005
     FM140400 VRB03KT P6SM VCFG FEW002
      TEMPO 1407/1410 1/2SM FG VV002
     FM141400 VRB03KT P6SM SKC=

USA.gov is the U.S. government's official web portal to all federal, state and local government web resources and services.